Jump to content

beachcp31

Admin
  • Posts

    2,339
  • Joined

  • Last visited

Everything posted by beachcp31

  1. Tous les modèles semblent s'accorder, nous aurons enfin droit à du temps plus chaud et plus sec, grâce au positionnement de l'anticyclone plus près de nous! Le diagramme GFS est éloquent (et est supporté par les ensembles) Christian
  2. Je tiens également à remercier chaleureusement Steeve pour cette organisation: un succès pour une première en plus! J'aurais bien aimé y participer toute la journée Ça faisait curieux un peu de faire une présentation et de retourner illico à mes activités ici: c'est passé bien rapidement Et merci à Réjean pour l'organisation, entre autre les aspects techniques de mon intervention en direct, une première pour moi! Ce type de rencontre est important et cela permet de regrouper autant les professionnels que les amateurs. C'est vraiment super! Ça rapproche toute la communauté météo du Québec: on a tout à gagner. Un grand merci à tous les intervenants, les participants et les commanditaires. Vivement l'édition 2011! Steeve tu as maintenant déjà la pression! Christian
  3. Il y a actuellement de la neige modérée rapportée à Carcassonne! LFMK 040800Z 28023G36KT 3000 RA BKN011 OVC017 04/03 Q1006 NOSIG= LFMK 040830Z 27020G32KT 240V300 4000 RA BKN011 OVC017 04/03 Q1007 NOSIG= LFMK 040830Z 27020G32KT 240V300 4000 RA BKN011 OVC017 04/03 Q1007 NOSIG = LFMK 040900Z 26015G26KT 3000 RASN BKN010 OVC017 02/01 Q1007 NOSIG= LFMK 040930Z 27016KT 240V300 3500 SNRA BKN010 OVC017 02/01 Q1007 NOSIG= LFMK 040930Z 27016KT 240V300 3500 SNRA BKN010 OVC017 02/01 Q1007 NOSIG = LFMK 041000Z 28014KT 3000 SN BKN007 OVC014 01/00 Q1008 NOSIG= Il ne fait que 1 C, et ici sur Toulouse c'est pluie modérée et ... 4.9 C.
  4. Ce sujet a déjà été débattu maintes fois. Veuillez relire les Règles du forum, il y en a quelques-unes qui s'y rapporte (de même dans la section de courtoisie). Comme à l'habitude, chacun a ses tords...
  5. Des éruptions et des tremblements de terre, il y en a toujours eu et ça continue. 2012 ça n'a rien de scientifique.... vraiment rien. Merci de ne pas repartir de discussion sur ce sujet.
  6. J'ai étudié à l'UQAM et j'ai fait ce programme, mais il y a un bon moment. Je sais que certains qui l'ont fait il y a moins longtemps sont sur le forum. N'hésite pas à me contacter par MP en tout cas! Christian
  7. Jean-Marc: les nouvelles fonctionnalités qui soient visibles sont les boutons Citer qui permettent d'activer la citation de plusieurs messages à la fois, et le bouton réponse rapide (ou flash) qui permet de répondre directement dans la page où se trouve la suite des messages. Il est aussi possible de voir les sujets sous forme de "threads" au lieu de l'affichage actuel. Je viens de rajouter plusieurs émoticônes, dont plusieurs supplémentaires accessibles en cliquant sur afficher tous sous ces derniers.... J'espère que vous allez les aimer, car j'ai dû choisir parce qu'il y en avait des centaines...!! Christian
  8. Oui, je suis en train de travailler pour les remettre. Merci d'avance pour les icônes! Jean-Marc: je te répond dès que j'ai un moment. Christian
  9. Bonjour à tous, J'ai rajouté quelques nouvelles fonctionnalités au forum. Si vous avez des commentaires n'hésitez pas! Je devrais bientôt rajouter des smileys en plus... Christian
  10. Merci pour cette belle analyse Jean-Louis. En effet, ça soufflait beaucoup jusqu'en milieu d'après-midi!!
  11. La carte de risques de crue d'Hydrométéo a été montrée sur le site web des nouvelles de Radio-Canada! http://www.radio-canada.ca/regions/Montrea...es-alerte.shtml Christian
  12. 23 mars, journée internationale de la météo http://www.journee-mondiale.com/121/23_mars-meteorologie.htm 40 années de météorologie au Québec L’UQAM est la seule institution universitaire en Amérique à offrir une formation en français à tous les cycles en sciences de l’atmosphère, incluant la prévision météorologique et la physique du climat. Et ce n’est pas d’hier que cette formation existe. Suite à l’adoption de la Loi sur les langues officielles en 1969, le Gouvernement du Canada entreprit de corriger les iniquités dans le nombre des employés de la fonction publique de langue anglaise et française. À l’époque la presque totalité des employés du Service météorologique canadien étaient anglophones, et la langue de travail était généralement l’anglais, même dans les bureaux du Québec. En 1972, le gouvernement conclut un accord avec l’UQAM pour la mise sur pied du premier cours en français de formation de météorologues prévisionnistes. Ce fut le début de la météorologie à l’UQAM et de la formation en sciences de l’atmosphère en langue française au pays. Depuis ce temps, plusieurs météorologues ont été formés en français par le biais des programmes de l’UQAM, et ce aux trois cycles universitaires. Le groupe de sciences de l’atmosphère de l’UQAM a pris un tournant décisif à la fin des années 80, avec le recrutement de plusieurs nouveaux professeurs spécialisés en simulation numérique appliquée à la prévision météorologique, à l’assimilation des données atmosphériques et au climat. En particulier la modélisation du climat à l’échelle régionale, à haute définition, est devenue un axe majeur de recherche au cours des deux dernières décennies. L’octroi d’une Chaire de recherche du Canada sur le thème de la modélisation régionale du climat consacre ce domaine comme un axe prioritaire à l’UQAM. Récemment un nouveau poste de professeur a été ouvert sur la thématique du calcul de haute performance appliqué à la météorologie et à la modélisation climatique. Le Centre ESCER (Étude et Simulation du Climat à l'Échelle Régionale) de l'UQAM regroupe aujourd’hui l’ensemble de l’expertise universitaire canadienne dans le domaine de la modélisation régionale du climat, et le groupe s’est taillé une réputation et une visibilité à l’échelle internationale pour l’originalité de ses travaux de recherche et pour les efforts consentis à la formation de jeunes chercheurs dans ce domaine novateur. Le refus du gouvernement fédéral de poursuivre le financement du seul organisme à soutenir la recherche universitaires en sciences du climat et de l'atmosphère, la FCSCA (http://www.cfcas.org/), sonne le glas des groupes de recherche oeuvrant dans ce domaine au Canada. Il est paradoxal que presque 40 ans après ses débuts, la formation et la recherche universitaire en météorologie au Québec soit menacée de disparition. René Laprise Professeur, Dép. Sciences de la Terre et de l'Atmosphère, UQAM Directeur, Centre ESCER
  13. Merci beaucoup pour cette superbe description de notre hiver froid! Il semble que le NAO- persistant ait été causé par une configuration spéciale de El Nino qui aurait été favorable aux téléconnections. Cela avait été vu par les modèles dès le début de l'automne, cette possibilité de téléconnection forte entre les deux modes oscillatoires. Christian
  14. Effectivement, la prévision a été assez loin de la réalité (même au Canada), et cela montre que les prévisions saisonnières sont encore au stade très expérimental même si les gouvernements ont beaucoup poussé pour les rendre déjà opérationnels. Il y a aussi le problème de la communication, car on ne peut pas donner l'incertitude ni discuter sur les régimes de temps les plus probables (NAO-, etc.). Cela rend l'exercice encore bien périlleux!! Christian
  15. Les prévisions saisonnières sont beaucoup plus difficile à établir que les projections climatiques, car celles-ci sont dépendantes des conditions initiales et des conditions aux frontières (océan), tandis que les projections climatiques ne dépendent que des conditions et des cycles océaniques en plus des forçages externes (rejets de gaz dans l'atmosphère), et non pas des conditions initiales. Les prévisions saisonnières sont donc dépendante significativement de ces conditions initiales tout comme les prévisions à court terme... et c'est ce qui les rends beaucoup plus imprécises avec une incertitude très grande.
  16. J'ai décidé de fermer le sujet: je crois que le tour de la question a été faite sur ce hors sujet par rapport au forum météo.
  17. Il y a aussi une grande incertitude sur l'intensité et l'extension des retours d'est qui nous affecteront ou pas. De même il y a également de l'incertitude marquée sur le positionnement exact de la goutte froide en altitude. On pourrait être surpris (ou pas!) lundi! Christian
  18. Je viens de rajouter le lien sur meteocentre dans la section Analyse. Si vous avez d'autres liens du genre, je peux les rajouter dans Temps violent sur la même ligne. Christian
  19. Au niveau climatologique, est-ce peu fréquent de voir autant de périodes froides ici sur Toulouse, et aussi en France en général? Car cet épisode froid est le 4e pour cet hiver. Christian
  20. Voilà la réponse aux problèmes rencontrés: http://social.answers.microsoft.com/Forums...5b-ef0352e8f650 En cause, Microsoft qui a réintroduit un vieux bug dans Explorer... Christian
  21. Bonsoir à tous, Je vais clore ce sujet sur un appel à envoyer vos dons de soutien pour Haïti: Croix Rouge du Canada Oxfam Québec Médecins du monde Canada Christian
  22. Bonjour à tous, Le Centre ESCER qui est un centre de recherche sur le climat de l'UQAM est menacé de fermeture car le gouvernement Harper a coupé le financement de la FCSCA qui le finance. Il faut aussi mentionner que c'est ce centre qui a financé en très grande partie l'infrastructure informatique sur laquelle repose meteocentre.com. Je vous reproduis ci-dessous les articles décrivant la situation. http://www.cyberpresse.ca/environnement/20...mat-menacee.php http://www.cyberpresse.ca/environnement/20...t-le-canada.php http://www.cyberpresse.ca/environnement/20...nt-a-partir.php ========
  23. Le tremblement de terre avait un épicentre situé à 8 à 10 km sous la surface terrestre, ce qui est très peu profond, d'où sa puissance. Je laisse ce post ouvert même si cela n'a aucun rapport à la météo, car c'est quand même dans les sciences géophysiques, et je viens de regarder les nouvelles sur Radio-Canada et c'est un désastre humanitaire sans commune mesure...
  24. Merci, je vais leur faire part du problème avec ce screenshot. Christian
×
×
  • Create New...